Airport ID:K2O1
Update Time (UTC):27/07/2021 05:19
Wind Speed (Knots):3
Wind Direction (Magnetic):230
Temperature (°C):20
Dew Point (°C):7
Humidity (%):45
Altimeter (inHg):30.05
Density Altitude (Feet):4800
Visibility:10+
Clouds (Hundreds of feet):***
Present Weather:
METAR:METAR K2O1 270515Z AUTO 00000KT 4SM HZ 20/07 A3005 RMK A01

The data displayed is for advisory purposes only and is not to be used for flight planning or operations.